KHLB/HLB METAR and TAF weather

Enter ICAO airport designator
Station Type Date Time Source
KHLB METAR 2019/12/06 08:55 UTC NOAA

KHLB 060855Z AUTO VRB03KT 10SM SCT075 BKN095 OVC110 08/M00 A3002 RMK A01


Station Type Date Time Source
KHLB Decoded METAR 2019/12/06 08:55 UTC NOAA

Station name not available
Dec 06, 2019 - 03:55 AM EST / 2019.12.06 0855 UTC
Wind: Variable at 3 MPH (3 KT):0
Visibility: 10 mile(s):0
Sky conditions: overcast
Temperature: 46 F (8 C)
Dew Point: 32 F (0 C)
Relative Humidity: 56%
Pressure (altimeter): 30.02 in. Hg (1016 hPa)
ob: KHLB 060855Z AUTO VRB03KT 10SM SCT075 BKN095 OVC110 08/M00 A3002 RMK A01
cycle: 9

Station Type Date Time Source
KHLB TAF UTC NOAA

Error!

Example: see airport list